sensor_id;sensor_type;location;lat;lon;timestamp;P1;durP1;ratioP1;P2;durP2;ratioP2
17365;SDS011;8800;50.118;9.900;2022-10-22T00:01:18;9.68;;;5.45;;
17365;SDS011;8800;50.118;9.900;2022-10-22T00:03:44;10.45;;;6.38;;
17365;SDS011;8800;50.118;9.900;2022-10-22T00:06:11;15.00;;;5.85;;
17365;SDS011;8800;50.118;9.900;2022-10-22T00:08:37;16.33;;;6.85;;
17365;SDS011;8800;50.118;9.900;2022-10-22T00:11:08;12.35;;;6.50;;
17365;SDS011;8800;50.118;9.900;2022-10-22T00:13:34;14.30;;;6.72;;
17365;SDS011;8800;50.118;9.900;2022-10-22T00:16:02;12.18;;;6.70;;
17365;SDS011;8800;50.118;9.900;2022-10-22T00:18:28;13.23;;;6.93;;
17365;SDS011;8800;50.118;9.900;2022-10-22T00:20:55;10.40;;;6.68;;
17365;SDS011;8800;50.118;9.900;2022-10-22T00:23:21;12.38;;;7.22;;
17365;SDS011;8800;50.118;9.900;2022-10-22T00:25:47;14.48;;;7.63;;
17365;SDS011;8800;50.118;9.900;2022-10-22T00:28:14;11.32;;;7.15;;
17365;SDS011;8800;50.118;9.900;2022-10-22T00:30:40;12.50;;;7.30;;
17365;SDS011;8800;50.118;9.900;2022-10-22T00:33:08;13.43;;;7.60;;
17365;SDS011;8800;50.118;9.900;2022-10-22T00:35:34;12.43;;;7.07;;
17365;SDS011;8800;50.118;9.900;2022-10-22T00:38:01;15.50;;;7.93;;
17365;SDS011;8800;50.118;9.900;2022-10-22T00:40:27;11.60;;;6.72;;
17365;SDS011;8800;50.118;9.900;2022-10-22T00:42:54;12.45;;;6.95;;
17365;SDS011;8800;50.118;9.900;2022-10-22T00:45:21;11.23;;;7.05;;
17365;SDS011;8800;50.118;9.900;2022-10-22T00:47:49;12.07;;;6.97;;
17365;SDS011;8800;50.118;9.900;2022-10-22T00:50:21;11.63;;;7.00;;
17365;SDS011;8800;50.118;9.900;2022-10-22T00:52:48;13.02;;;6.85;;
17365;SDS011;8800;50.118;9.900;2022-10-22T00:55:15;10.95;;;6.60;;
17365;SDS011;8800;50.118;9.900;2022-10-22T00:57:42;12.05;;;6.90;;
17365;SDS011;8800;50.118;9.900;2022-10-22T01:00:09;11.38;;;6.97;;
17365;SDS011;8800;50.118;9.900;2022-10-22T01:02:36;12.32;;;6.93;;
17365;SDS011;8800;50.118;9.900;2022-10-22T01:05:02;11.02;;;6.55;;
17365;SDS011;8800;50.118;9.900;2022-10-22T01:07:30;10.70;;;6.40;;
17365;SDS011;8800;50.118;9.900;2022-10-22T01:10:00;14.85;;;6.50;;
17365;SDS011;8800;50.118;9.900;2022-10-22T01:12:31;11.18;;;6.60;;
17365;SDS011;8800;50.118;9.900;2022-10-22T01:15:04;10.82;;;6.63;;
17365;SDS011;8800;50.118;9.900;2022-10-22T01:17:35;11.75;;;6.40;;
17365;SDS011;8800;50.118;9.900;2022-10-22T01:20:05;13.48;;;6.05;;
17365;SDS011;8800;50.118;9.900;2022-10-22T01:22:38;9.52;;;6.20;;
17365;SDS011;8800;50.118;9.900;2022-10-22T01:25:07;11.20;;;6.28;;
17365;SDS011;8800;50.118;9.900;2022-10-22T01:27:37;9.35;;;5.90;;
17365;SDS011;8800;50.118;9.900;2022-10-22T01:30:07;9.20;;;6.07;;
17365;SDS011;8800;50.118;9.900;2022-10-22T01:32:35;14.93;;;6.65;;
17365;SDS011;8800;50.118;9.900;2022-10-22T01:35:04;39.17;;;6.72;;
17365;SDS011;8800;50.118;9.900;2022-10-22T01:37:31;12.98;;;6.95;;
17365;SDS011;8800;50.118;9.900;2022-10-22T01:39:59;10.93;;;6.57;;
17365;SDS011;8800;50.118;9.900;2022-10-22T01:42:26;12.98;;;5.93;;
17365;SDS011;8800;50.118;9.900;2022-10-22T01:44:53;8.32;;;5.63;;
17365;SDS011;8800;50.118;9.900;2022-10-22T01:47:22;9.82;;;5.65;;
17365;SDS011;8800;50.118;9.900;2022-10-22T01:50:02;10.55;;;6.30;;
17365;SDS011;8800;50.118;9.900;2022-10-22T01:52:33;8.38;;;5.50;;
17365;SDS011;8800;50.118;9.900;2022-10-22T01:55:06;10.68;;;5.15;;
17365;SDS011;8800;50.118;9.900;2022-10-22T01:57:35;8.15;;;4.43;;
17365;SDS011;8800;50.118;9.900;2022-10-22T02:00:08;7.28;;;4.30;;
17365;SDS011;8800;50.118;9.900;2022-10-22T02:02:38;8.18;;;4.20;;
17365;SDS011;8800;50.118;9.900;2022-10-22T02:05:06;7.88;;;3.95;;
17365;SDS011;8800;50.118;9.900;2022-10-22T02:07:36;7.35;;;3.97;;
17365;SDS011;8800;50.118;9.900;2022-10-22T02:10:04;8.73;;;4.35;;
17365;SDS011;8800;50.118;9.900;2022-10-22T02:12:31;7.70;;;4.80;;
17365;SDS011;8800;50.118;9.900;2022-10-22T02:14:58;9.60;;;5.70;;
17365;SDS011;8800;50.118;9.900;2022-10-22T02:17:25;8.20;;;5.82;;
17365;SDS011;8800;50.118;9.900;2022-10-22T02:19:55;9.00;;;6.03;;
17365;SDS011;8800;50.118;9.900;2022-10-22T02:22:22;8.15;;;5.15;;
17365;SDS011;8800;50.118;9.900;2022-10-22T02:24:50;9.18;;;5.15;;
17365;SDS011;8800;50.118;9.900;2022-10-22T02:27:17;7.88;;;5.15;;
17365;SDS011;8800;50.118;9.900;2022-10-22T02:29:47;8.00;;;4.95;;
17365;SDS011;8800;50.118;9.900;2022-10-22T02:32:17;8.43;;;5.25;;
17365;SDS011;8800;50.118;9.900;2022-10-22T02:34:44;8.48;;;5.38;;
17365;SDS011;8800;50.118;9.900;2022-10-22T02:37:13;7.72;;;5.10;;
17365;SDS011;8800;50.118;9.900;2022-10-22T02:39:40;6.93;;;4.88;;
17365;SDS011;8800;50.118;9.900;2022-10-22T02:42:07;14.60;;;5.47;;
17365;SDS011;8800;50.118;9.900;2022-10-22T02:44:34;9.25;;;5.45;;
17365;SDS011;8800;50.118;9.900;2022-10-22T02:47:00;11.23;;;6.03;;
17365;SDS011;8800;50.118;9.900;2022-10-22T02:49:27;9.02;;;5.70;;
17365;SDS011;8800;50.118;9.900;2022-10-22T02:51:53;10.07;;;5.57;;
17365;SDS011;8800;50.118;9.900;2022-10-22T02:54:21;9.20;;;5.78;;
17365;SDS011;8800;50.118;9.900;2022-10-22T02:56:47;10.15;;;5.80;;
17365;SDS011;8800;50.118;9.900;2022-10-22T02:59:13;11.20;;;5.70;;
17365;SDS011;8800;50.118;9.900;2022-10-22T03:01:40;9.13;;;5.70;;
17365;SDS011;8800;50.118;9.900;2022-10-22T03:04:06;9.98;;;6.25;;
17365;SDS011;8800;50.118;9.900;2022-10-22T03:06:32;11.00;;;5.38;;
17365;SDS011;8800;50.118;9.900;2022-10-22T03:08:59;9.82;;;5.07;;
17365;SDS011;8800;50.118;9.900;2022-10-22T03:11:27;9.90;;;5.30;;
17365;SDS011;8800;50.118;9.900;2022-10-22T03:13:53;10.35;;;4.82;;
17365;SDS011;8800;50.118;9.900;2022-10-22T03:16:19;7.80;;;4.93;;
17365;SDS011;8800;50.118;9.900;2022-10-22T03:18:46;8.90;;;4.95;;
17365;SDS011;8800;50.118;9.900;2022-10-22T03:21:12;9.68;;;5.97;;
17365;SDS011;8800;50.118;9.900;2022-10-22T03:23:44;9.10;;;5.97;;
17365;SDS011;8800;50.118;9.900;2022-10-22T03:26:10;6.97;;;4.55;;
17365;SDS011;8800;50.118;9.900;2022-10-22T03:28:39;54.33;;;21.00;;
17365;SDS011;8800;50.118;9.900;2022-10-22T03:31:06;46.35;;;17.48;;
17365;SDS011;8800;50.118;9.900;2022-10-22T03:33:33;25.60;;;12.05;;
17365;SDS011;8800;50.118;9.900;2022-10-22T03:35:59;15.38;;;8.82;;
17365;SDS011;8800;50.118;9.900;2022-10-22T03:38:26;15.57;;;5.63;;
17365;SDS011;8800;50.118;9.900;2022-10-22T03:40:52;10.95;;;7.38;;
17365;SDS011;8800;50.118;9.900;2022-10-22T03:43:18;9.27;;;5.75;;
17365;SDS011;8800;50.118;9.900;2022-10-22T03:45:46;8.15;;;4.85;;
17365;SDS011;8800;50.118;9.900;2022-10-22T03:48:13;8.90;;;5.28;;
17365;SDS011;8800;50.118;9.900;2022-10-22T03:50:39;7.40;;;5.07;;
17365;SDS011;8800;50.118;9.900;2022-10-22T03:53:05;11.23;;;5.55;;
17365;SDS011;8800;50.118;9.900;2022-10-22T03:55:34;10.43;;;6.13;;
17365;SDS011;8800;50.118;9.900;2022-10-22T03:58:02;11.13;;;6.18;;
17365;SDS011;8800;50.118;9.900;2022-10-22T04:00:28;12.20;;;6.15;;
17365;SDS011;8800;50.118;9.900;2022-10-22T04:02:56;12.13;;;6.82;;
17365;SDS011;8800;50.118;9.900;2022-10-22T04:05:23;11.25;;;7.13;;
17365;SDS011;8800;50.118;9.900;2022-10-22T04:07:49;13.27;;;7.70;;
17365;SDS011;8800;50.118;9.900;2022-10-22T04:10:15;14.52;;;7.55;;
17365;SDS011;8800;50.118;9.900;2022-10-22T04:12:42;13.57;;;6.93;;
17365;SDS011;8800;50.118;9.900;2022-10-22T04:15:08;15.15;;;6.80;;
17365;SDS011;8800;50.118;9.900;2022-10-22T04:17:35;9.80;;;6.28;;
17365;SDS011;8800;50.118;9.900;2022-10-22T04:20:04;9.98;;;6.05;;
17365;SDS011;8800;50.118;9.900;2022-10-22T04:22:31;11.13;;;5.60;;
17365;SDS011;8800;50.118;9.900;2022-10-22T04:24:58;8.57;;;5.18;;
17365;SDS011;8800;50.118;9.900;2022-10-22T04:27:24;7.78;;;5.05;;
17365;SDS011;8800;50.118;9.900;2022-10-22T04:29:51;10.55;;;5.25;;
17365;SDS011;8800;50.118;9.900;2022-10-22T04:32:18;8.40;;;5.15;;
17365;SDS011;8800;50.118;9.900;2022-10-22T04:34:44;7.80;;;4.40;;
17365;SDS011;8800;50.118;9.900;2022-10-22T04:37:12;6.55;;;4.60;;
17365;SDS011;8800;50.118;9.900;2022-10-22T04:39:39;6.57;;;4.30;;
17365;SDS011;8800;50.118;9.900;2022-10-22T04:42:05;7.22;;;4.60;;
17365;SDS011;8800;50.118;9.900;2022-10-22T04:44:32;11.15;;;8.18;;
17365;SDS011;8800;50.118;9.900;2022-10-22T04:46:59;10.95;;;6.82;;
17365;SDS011;8800;50.118;9.900;2022-10-22T04:49:25;11.50;;;6.15;;
17365;SDS011;8800;50.118;9.900;2022-10-22T04:51:52;22.02;;;5.95;;
17365;SDS011;8800;50.118;9.900;2022-10-22T04:54:20;17.92;;;7.43;;
17365;SDS011;8800;50.118;9.900;2022-10-22T04:56:46;8.90;;;6.00;;
17365;SDS011;8800;50.118;9.900;2022-10-22T04:59:13;10.63;;;5.95;;
17365;SDS011;8800;50.118;9.900;2022-10-22T05:01:40;8.52;;;5.20;;
17365;SDS011;8800;50.118;9.900;2022-10-22T05:04:08;8.27;;;5.40;;
17365;SDS011;8800;50.118;9.900;2022-10-22T05:06:36;8.25;;;5.07;;
17365;SDS011;8800;50.118;9.900;2022-10-22T05:09:03;9.00;;;5.35;;
17365;SDS011;8800;50.118;9.900;2022-10-22T05:11:32;7.35;;;4.68;;
17365;SDS011;8800;50.118;9.900;2022-10-22T05:13:59;6.90;;;4.70;;
17365;SDS011;8800;50.118;9.900;2022-10-22T05:16:26;9.93;;;4.72;;
17365;SDS011;8800;50.118;9.900;2022-10-22T05:18:53;8.55;;;4.65;;
17365;SDS011;8800;50.118;9.900;2022-10-22T05:21:19;6.38;;;4.13;;
17365;SDS011;8800;50.118;9.900;2022-10-22T05:23:47;5.65;;;3.88;;
17365;SDS011;8800;50.118;9.900;2022-10-22T05:26:15;9.15;;;4.30;;
17365;SDS011;8800;50.118;9.900;2022-10-22T05:28:43;6.38;;;3.67;;
17365;SDS011;8800;50.118;9.900;2022-10-22T05:31:11;6.15;;;3.80;;
17365;SDS011;8800;50.118;9.900;2022-10-22T05:33:38;4.82;;;2.63;;
17365;SDS011;8800;50.118;9.900;2022-10-22T05:36:06;4.85;;;2.60;;
17365;SDS011;8800;50.118;9.900;2022-10-22T05:38:33;3.13;;;2.30;;
17365;SDS011;8800;50.118;9.900;2022-10-22T05:41:00;3.83;;;2.33;;
17365;SDS011;8800;50.118;9.900;2022-10-22T05:43:27;4.95;;;3.00;;
17365;SDS011;8800;50.118;9.900;2022-10-22T05:45:55;7.65;;;3.88;;
17365;SDS011;8800;50.118;9.900;2022-10-22T05:48:22;7.70;;;4.65;;
17365;SDS011;8800;50.118;9.900;2022-10-22T05:50:48;6.13;;;3.50;;
17365;SDS011;8800;50.118;9.900;2022-10-22T05:53:16;4.65;;;2.95;;
17365;SDS011;8800;50.118;9.900;2022-10-22T05:55:42;4.68;;;3.20;;
17365;SDS011;8800;50.118;9.900;2022-10-22T05:58:09;8.00;;;3.28;;
17365;SDS011;8800;50.118;9.900;2022-10-22T06:00:36;7.60;;;3.53;;
17365;SDS011;8800;50.118;9.900;2022-10-22T06:03:04;6.28;;;4.05;;
17365;SDS011;8800;50.118;9.900;2022-10-22T06:05:33;9.10;;;4.97;;
17365;SDS011;8800;50.118;9.900;2022-10-22T06:07:59;6.75;;;3.67;;
17365;SDS011;8800;50.118;9.900;2022-10-22T06:10:26;6.55;;;3.92;;
17365;SDS011;8800;50.118;9.900;2022-10-22T06:12:52;6.00;;;3.30;;
17365;SDS011;8800;50.118;9.900;2022-10-22T06:15:19;4.45;;;2.80;;
17365;SDS011;8800;50.118;9.900;2022-10-22T06:17:46;6.75;;;2.60;;
17365;SDS011;8800;50.118;9.900;2022-10-22T06:20:14;4.78;;;2.75;;
17365;SDS011;8800;50.118;9.900;2022-10-22T06:22:40;7.63;;;3.80;;
17365;SDS011;8800;50.118;9.900;2022-10-22T06:25:07;4.45;;;2.50;;
17365;SDS011;8800;50.118;9.900;2022-10-22T06:27:33;6.10;;;2.97;;
17365;SDS011;8800;50.118;9.900;2022-10-22T06:30:00;3.83;;;2.53;;
17365;SDS011;8800;50.118;9.900;2022-10-22T06:32:27;3.80;;;2.10;;
17365;SDS011;8800;50.118;9.900;2022-10-22T06:34:53;6.45;;;3.83;;
17365;SDS011;8800;50.118;9.900;2022-10-22T06:37:21;6.90;;;4.10;;
17365;SDS011;8800;50.118;9.900;2022-10-22T06:39:47;25.23;;;11.85;;
17365;SDS011;8800;50.118;9.900;2022-10-22T06:42:14;7.97;;;3.90;;
17365;SDS011;8800;50.118;9.900;2022-10-22T06:44:40;5.60;;;3.03;;
17365;SDS011;8800;50.118;9.900;2022-10-22T06:47:07;5.60;;;2.50;;
17365;SDS011;8800;50.118;9.900;2022-10-22T06:49:33;6.60;;;3.40;;
17365;SDS011;8800;50.118;9.900;2022-10-22T06:51:59;8.80;;;2.80;;
17365;SDS011;8800;50.118;9.900;2022-10-22T06:54:27;7.93;;;2.97;;
17365;SDS011;8800;50.118;9.900;2022-10-22T06:56:53;11.68;;;4.40;;
17365;SDS011;8800;50.118;9.900;2022-10-22T06:59:20;8.15;;;4.63;;
17365;SDS011;8800;50.118;9.900;2022-10-22T07:01:46;9.52;;;4.28;;
17365;SDS011;8800;50.118;9.900;2022-10-22T07:04:13;9.05;;;4.57;;
17365;SDS011;8800;50.118;9.900;2022-10-22T07:06:39;8.80;;;3.88;;
17365;SDS011;8800;50.118;9.900;2022-10-22T07:09:06;11.73;;;4.28;;
17365;SDS011;8800;50.118;9.900;2022-10-22T07:11:38;5.78;;;2.92;;
17365;SDS011;8800;50.118;9.900;2022-10-22T07:14:05;9.10;;;3.03;;
17365;SDS011;8800;50.118;9.900;2022-10-22T07:16:32;4.85;;;1.85;;
17365;SDS011;8800;50.118;9.900;2022-10-22T07:18:59;5.68;;;2.20;;
17365;SDS011;8800;50.118;9.900;2022-10-22T07:21:25;7.95;;;2.30;;
17365;SDS011;8800;50.118;9.900;2022-10-22T07:23:52;5.95;;;1.90;;
17365;SDS011;8800;50.118;9.900;2022-10-22T07:26:18;3.47;;;1.90;;
17365;SDS011;8800;50.118;9.900;2022-10-22T07:28:46;2.15;;;1.40;;
17365;SDS011;8800;50.118;9.900;2022-10-22T07:31:13;3.05;;;1.52;;
17365;SDS011;8800;50.118;9.900;2022-10-22T07:33:40;4.15;;;1.48;;
17365;SDS011;8800;50.118;9.900;2022-10-22T07:36:08;6.20;;;2.15;;
17365;SDS011;8800;50.118;9.900;2022-10-22T07:38:35;3.88;;;1.50;;
17365;SDS011;8800;50.118;9.900;2022-10-22T07:41:02;4.13;;;1.40;;
17365;SDS011;8800;50.118;9.900;2022-10-22T07:43:29;3.90;;;1.92;;
17365;SDS011;8800;50.118;9.900;2022-10-22T07:45:57;6.25;;;2.78;;
17365;SDS011;8800;50.118;9.900;2022-10-22T07:48:23;2.60;;;1.58;;
17365;SDS011;8800;50.118;9.900;2022-10-22T07:50:50;2.92;;;1.50;;
17365;SDS011;8800;50.118;9.900;2022-10-22T07:53:17;1.92;;;1.23;;
17365;SDS011;8800;50.118;9.900;2022-10-22T07:55:46;3.72;;;1.33;;
17365;SDS011;8800;50.118;9.900;2022-10-22T07:58:13;4.13;;;2.05;;
17365;SDS011;8800;50.118;9.900;2022-10-22T08:00:39;5.60;;;2.55;;
17365;SDS011;8800;50.118;9.900;2022-10-22T08:03:08;5.32;;;2.10;;
17365;SDS011;8800;50.118;9.900;2022-10-22T08:05:34;4.07;;;1.80;;
17365;SDS011;8800;50.118;9.900;2022-10-22T08:08:01;8.90;;;4.78;;
17365;SDS011;8800;50.118;9.900;2022-10-22T08:10:27;16.58;;;7.43;;
17365;SDS011;8800;50.118;9.900;2022-10-22T08:12:54;6.63;;;2.47;;
17365;SDS011;8800;50.118;9.900;2022-10-22T08:15:20;4.00;;;2.28;;
17365;SDS011;8800;50.118;9.900;2022-10-22T08:17:49;4.38;;;2.03;;
17365;SDS011;8800;50.118;9.900;2022-10-22T08:20:16;6.20;;;1.00;;
17365;SDS011;8800;50.118;9.900;2022-10-22T08:22:43;1.27;;;0.98;;
17365;SDS011;8800;50.118;9.900;2022-10-22T08:25:09;1.55;;;0.90;;
17365;SDS011;8800;50.118;9.900;2022-10-22T08:27:36;3.28;;;1.20;;
17365;SDS011;8800;50.118;9.900;2022-10-22T08:30:03;3.88;;;2.10;;
17365;SDS011;8800;50.118;9.900;2022-10-22T08:32:30;5.47;;;2.20;;
17365;SDS011;8800;50.118;9.900;2022-10-22T08:34:56;2.67;;;1.70;;
17365;SDS011;8800;50.118;9.900;2022-10-22T08:37:24;3.78;;;1.30;;
17365;SDS011;8800;50.118;9.900;2022-10-22T08:39:50;3.58;;;2.13;;
17365;SDS011;8800;50.118;9.900;2022-10-22T08:45:01;4.50;;;2.30;;
17365;SDS011;8800;50.118;9.900;2022-10-22T08:47:45;3.65;;;1.50;;
17365;SDS011;8800;50.118;9.900;2022-10-22T08:50:15;2.30;;;1.40;;
17365;SDS011;8800;50.118;9.900;2022-10-22T08:52:44;2.85;;;1.63;;
17365;SDS011;8800;50.118;9.900;2022-10-22T08:55:13;5.45;;;1.73;;
17365;SDS011;8800;50.118;9.900;2022-10-22T08:57:43;4.03;;;2.15;;
17365;SDS011;8800;50.118;9.900;2022-10-22T09:00:12;2.97;;;1.90;;
17365;SDS011;8800;50.118;9.900;2022-10-22T09:02:42;4.82;;;1.80;;
17365;SDS011;8800;50.118;9.900;2022-10-22T09:05:16;2.97;;;1.00;;
17365;SDS011;8800;50.118;9.900;2022-10-22T09:07:44;1.88;;;1.00;;
17365;SDS011;8800;50.118;9.900;2022-10-22T09:10:14;3.97;;;1.58;;
17365;SDS011;8800;50.118;9.900;2022-10-22T09:12:41;2.13;;;1.35;;
17365;SDS011;8800;50.118;9.900;2022-10-22T09:15:10;4.90;;;1.70;;
17365;SDS011;8800;50.118;9.900;2022-10-22T09:17:39;3.95;;;1.42;;
17365;SDS011;8800;50.118;9.900;2022-10-22T09:20:10;3.40;;;1.77;;
17365;SDS011;8800;50.118;9.900;2022-10-22T09:22:41;3.25;;;1.52;;
17365;SDS011;8800;50.118;9.900;2022-10-22T09:25:15;4.38;;;1.77;;
17365;SDS011;8800;50.118;9.900;2022-10-22T09:27:43;3.03;;;1.35;;
17365;SDS011;8800;50.118;9.900;2022-10-22T09:30:10;3.60;;;1.67;;
17365;SDS011;8800;50.118;9.900;2022-10-22T09:32:40;3.08;;;1.38;;
17365;SDS011;8800;50.118;9.900;2022-10-22T09:35:08;2.65;;;1.30;;
17365;SDS011;8800;50.118;9.900;2022-10-22T09:37:35;2.00;;;1.42;;
17365;SDS011;8800;50.118;9.900;2022-10-22T09:40:02;1.90;;;1.40;;
17365;SDS011;8800;50.118;9.900;2022-10-22T09:42:30;2.45;;;1.15;;
17365;SDS011;8800;50.118;9.900;2022-10-22T09:44:59;2.97;;;1.33;;
17365;SDS011;8800;50.118;9.900;2022-10-22T09:47:27;2.75;;;1.17;;
17365;SDS011;8800;50.118;9.900;2022-10-22T09:50:03;5.18;;;1.20;;
17365;SDS011;8800;50.118;9.900;2022-10-22T09:52:29;2.10;;;1.35;;
17365;SDS011;8800;50.118;9.900;2022-10-22T09:54:56;4.85;;;1.30;;
17365;SDS011;8800;50.118;9.900;2022-10-22T09:57:27;4.03;;;1.70;;
17365;SDS011;8800;50.118;9.900;2022-10-22T09:59:55;2.58;;;1.10;;
17365;SDS011;8800;50.118;9.900;2022-10-22T10:02:22;2.63;;;1.50;;
17365;SDS011;8800;50.118;9.900;2022-10-22T10:04:50;2.22;;;1.50;;
17365;SDS011;8800;50.118;9.900;2022-10-22T10:07:18;5.53;;;1.20;;
17365;SDS011;8800;50.118;9.900;2022-10-22T10:09:45;3.17;;;1.45;;
17365;SDS011;8800;50.118;9.900;2022-10-22T10:12:15;2.33;;;1.30;;
17365;SDS011;8800;50.118;9.900;2022-10-22T10:14:47;4.78;;;2.00;;
17365;SDS011;8800;50.118;9.900;2022-10-22T10:17:21;3.58;;;1.50;;
17365;SDS011;8800;50.118;9.900;2022-10-22T10:19:52;4.00;;;1.50;;
17365;SDS011;8800;50.118;9.900;2022-10-22T10:22:35;3.88;;;1.63;;
17365;SDS011;8800;50.118;9.900;2022-10-22T10:25:11;3.63;;;1.60;;
17365;SDS011;8800;50.118;9.900;2022-10-22T10:27:42;2.47;;;1.10;;
17365;SDS011;8800;50.118;9.900;2022-10-22T10:30:10;4.13;;;1.00;;
17365;SDS011;8800;50.118;9.900;2022-10-22T10:32:47;2.05;;;0.93;;
17365;SDS011;8800;50.118;9.900;2022-10-22T10:35:19;1.20;;;0.85;;
17365;SDS011;8800;50.118;9.900;2022-10-22T10:37:49;2.15;;;0.70;;
17365;SDS011;8800;50.118;9.900;2022-10-22T10:40:23;5.20;;;1.67;;
17365;SDS011;8800;50.118;9.900;2022-10-22T10:42:52;2.08;;;0.77;;
17365;SDS011;8800;50.118;9.900;2022-10-22T10:45:22;3.47;;;0.77;;
17365;SDS011;8800;50.118;9.900;2022-10-22T10:48:03;2.72;;;0.93;;
17365;SDS011;8800;50.118;9.900;2022-10-22T10:50:33;2.60;;;0.80;;
17365;SDS011;8800;50.118;9.900;2022-10-22T10:53:02;2.45;;;0.77;;
17365;SDS011;8800;50.118;9.900;2022-10-22T10:55:37;4.00;;;0.80;;
17365;SDS011;8800;50.118;9.900;2022-10-22T10:58:09;2.05;;;0.60;;
17365;SDS011;8800;50.118;9.900;2022-10-22T11:00:39;3.78;;;0.57;;
17365;SDS011;8800;50.118;9.900;2022-10-22T11:03:16;4.50;;;0.80;;
17365;SDS011;8800;50.118;9.900;2022-10-22T11:05:47;1.40;;;0.50;;
17365;SDS011;8800;50.118;9.900;2022-10-22T11:08:17;1.85;;;0.52;;
17365;SDS011;8800;50.118;9.900;2022-10-22T11:10:45;2.85;;;0.52;;
17365;SDS011;8800;50.118;9.900;2022-10-22T11:13:16;1.73;;;0.70;;
17365;SDS011;8800;50.118;9.900;2022-10-22T11:15:44;1.73;;;0.60;;
17365;SDS011;8800;50.118;9.900;2022-10-22T11:18:13;2.35;;;0.60;;
17365;SDS011;8800;50.118;9.900;2022-10-22T11:20:51;1.90;;;0.65;;
17365;SDS011;8800;50.118;9.900;2022-10-22T11:23:21;1.80;;;0.50;;
17365;SDS011;8800;50.118;9.900;2022-10-22T11:25:48;2.03;;;0.63;;
17365;SDS011;8800;50.118;9.900;2022-10-22T11:28:16;2.30;;;0.60;;
17365;SDS011;8800;50.118;9.900;2022-10-22T11:30:44;3.70;;;0.95;;
17365;SDS011;8800;50.118;9.900;2022-10-22T11:33:11;5.75;;;0.80;;
17365;SDS011;8800;50.118;9.900;2022-10-22T11:35:40;2.90;;;0.70;;
17365;SDS011;8800;50.118;9.900;2022-10-22T11:38:11;2.40;;;0.60;;
17365;SDS011;8800;50.118;9.900;2022-10-22T11:40:42;0.63;;;0.52;;
17365;SDS011;8800;50.118;9.900;2022-10-22T11:43:10;2.25;;;0.73;;
17365;SDS011;8800;50.118;9.900;2022-10-22T11:45:37;2.35;;;0.60;;
17365;SDS011;8800;50.118;9.900;2022-10-22T11:48:06;1.67;;;0.60;;
17365;SDS011;8800;50.118;9.900;2022-10-22T11:50:43;4.03;;;0.63;;
17365;SDS011;8800;50.118;9.900;2022-10-22T11:53:17;1.80;;;0.60;;
17365;SDS011;8800;50.118;9.900;2022-10-22T11:55:45;4.63;;;0.77;;
17365;SDS011;8800;50.118;9.900;2022-10-22T11:58:26;3.75;;;0.70;;
17365;SDS011;8800;50.118;9.900;2022-10-22T12:00:53;0.98;;;0.60;;
17365;SDS011;8800;50.118;9.900;2022-10-22T12:03:22;1.77;;;0.65;;
17365;SDS011;8800;50.118;9.900;2022-10-22T12:06:01;4.90;;;0.57;;
17365;SDS011;8800;50.118;9.900;2022-10-22T12:08:29;1.30;;;0.55;;
17365;SDS011;8800;50.118;9.900;2022-10-22T12:10:57;1.88;;;0.60;;
17365;SDS011;8800;50.118;9.900;2022-10-22T12:13:26;2.75;;;0.43;;
17365;SDS011;8800;50.118;9.900;2022-10-22T12:15:53;2.42;;;0.50;;
17365;SDS011;8800;50.118;9.900;2022-10-22T12:18:22;1.60;;;0.63;;
17365;SDS011;8800;50.118;9.900;2022-10-22T12:20:49;3.85;;;0.60;;
17365;SDS011;8800;50.118;9.900;2022-10-22T12:23:16;1.88;;;0.50;;
17365;SDS011;8800;50.118;9.900;2022-10-22T12:25:44;2.88;;;0.60;;
17365;SDS011;8800;50.118;9.900;2022-10-22T12:28:11;2.38;;;0.60;;
17365;SDS011;8800;50.118;9.900;2022-10-22T12:30:38;2.28;;;0.50;;
17365;SDS011;8800;50.118;9.900;2022-10-22T12:33:06;4.18;;;0.90;;
17365;SDS011;8800;50.118;9.900;2022-10-22T12:35:33;2.30;;;0.70;;
17365;SDS011;8800;50.118;9.900;2022-10-22T12:38:01;1.52;;;0.60;;
17365;SDS011;8800;50.118;9.900;2022-10-22T12:40:28;3.70;;;0.68;;
17365;SDS011;8800;50.118;9.900;2022-10-22T12:42:57;1.55;;;0.35;;
17365;SDS011;8800;50.118;9.900;2022-10-22T12:45:25;1.67;;;0.52;;
17365;SDS011;8800;50.118;9.900;2022-10-22T12:47:54;1.48;;;0.60;;
17365;SDS011;8800;50.118;9.900;2022-10-22T12:50:22;2.97;;;1.00;;
17365;SDS011;8800;50.118;9.900;2022-10-22T12:52:52;2.70;;;1.27;;
17365;SDS011;8800;50.118;9.900;2022-10-22T12:55:20;3.95;;;1.08;;
17365;SDS011;8800;50.118;9.900;2022-10-22T12:57:49;5.53;;;1.38;;
17365;SDS011;8800;50.118;9.900;2022-10-22T13:00:22;3.90;;;1.30;;
17365;SDS011;8800;50.118;9.900;2022-10-22T13:02:49;4.45;;;1.55;;
17365;SDS011;8800;50.118;9.900;2022-10-22T13:05:20;4.38;;;0.93;;
17365;SDS011;8800;50.118;9.900;2022-10-22T13:07:48;3.20;;;1.10;;
17365;SDS011;8800;50.118;9.900;2022-10-22T13:10:17;5.50;;;1.20;;
17365;SDS011;8800;50.118;9.900;2022-10-22T13:12:47;8.02;;;3.88;;
17365;SDS011;8800;50.118;9.900;2022-10-22T13:15:18;2.60;;;1.00;;
17365;SDS011;8800;50.118;9.900;2022-10-22T13:17:46;4.65;;;1.02;;
17365;SDS011;8800;50.118;9.900;2022-10-22T13:20:19;2.53;;;0.88;;
17365;SDS011;8800;50.118;9.900;2022-10-22T13:22:52;2.88;;;1.00;;
17365;SDS011;8800;50.118;9.900;2022-10-22T13:25:21;2.50;;;0.90;;
17365;SDS011;8800;50.118;9.900;2022-10-22T13:27:49;2.10;;;0.73;;
17365;SDS011;8800;50.118;9.900;2022-10-22T13:30:19;3.95;;;0.80;;
17365;SDS011;8800;50.118;9.900;2022-10-22T13:32:52;2.03;;;0.70;;
17365;SDS011;8800;50.118;9.900;2022-10-22T13:35:20;2.50;;;0.80;;
17365;SDS011;8800;50.118;9.900;2022-10-22T13:37:48;2.20;;;0.68;;
17365;SDS011;8800;50.118;9.900;2022-10-22T13:40:14;3.20;;;0.70;;
17365;SDS011;8800;50.118;9.900;2022-10-22T13:42:41;2.60;;;1.08;;
17365;SDS011;8800;50.118;9.900;2022-10-22T13:45:07;3.33;;;0.80;;
17365;SDS011;8800;50.118;9.900;2022-10-22T13:47:33;2.78;;;1.10;;
17365;SDS011;8800;50.118;9.900;2022-10-22T13:50:03;6.97;;;2.30;;
17365;SDS011;8800;50.118;9.900;2022-10-22T13:52:33;3.97;;;1.30;;
17365;SDS011;8800;50.118;9.900;2022-10-22T13:55:01;3.67;;;1.90;;
17365;SDS011;8800;50.118;9.900;2022-10-22T13:57:27;7.53;;;1.60;;
17365;SDS011;8800;50.118;9.900;2022-10-22T13:59:54;4.18;;;1.50;;
17365;SDS011;8800;50.118;9.900;2022-10-22T14:02:20;4.03;;;1.48;;
17365;SDS011;8800;50.118;9.900;2022-10-22T14:04:48;5.35;;;2.60;;
17365;SDS011;8800;50.118;9.900;2022-10-22T14:07:17;6.68;;;2.70;;
17365;SDS011;8800;50.118;9.900;2022-10-22T14:09:43;3.80;;;1.35;;
17365;SDS011;8800;50.118;9.900;2022-10-22T14:12:10;4.47;;;1.65;;
17365;SDS011;8800;50.118;9.900;2022-10-22T14:14:37;3.60;;;1.98;;
17365;SDS011;8800;50.118;9.900;2022-10-22T14:17:04;7.22;;;3.60;;
17365;SDS011;8800;50.118;9.900;2022-10-22T14:19:31;7.63;;;1.70;;
17365;SDS011;8800;50.118;9.900;2022-10-22T14:21:57;3.30;;;1.55;;
17365;SDS011;8800;50.118;9.900;2022-10-22T14:24:25;1.88;;;0.90;;
17365;SDS011;8800;50.118;9.900;2022-10-22T14:26:52;4.72;;;0.80;;
17365;SDS011;8800;50.118;9.900;2022-10-22T14:29:18;3.63;;;0.90;;
17365;SDS011;8800;50.118;9.900;2022-10-22T14:31:45;2.25;;;0.70;;
17365;SDS011;8800;50.118;9.900;2022-10-22T14:34:12;3.20;;;0.90;;
17365;SDS011;8800;50.118;9.900;2022-10-22T14:36:38;3.65;;;0.90;;
17365;SDS011;8800;50.118;9.900;2022-10-22T14:39:07;2.20;;;1.00;;
17365;SDS011;8800;50.118;9.900;2022-10-22T14:41:35;3.95;;;1.15;;
17365;SDS011;8800;50.118;9.900;2022-10-22T14:44:02;5.32;;;1.33;;
17365;SDS011;8800;50.118;9.900;2022-10-22T14:46:28;5.60;;;1.58;;
17365;SDS011;8800;50.118;9.900;2022-10-22T14:48:55;3.70;;;1.02;;
17365;SDS011;8800;50.118;9.900;2022-10-22T14:51:21;5.32;;;2.13;;
17365;SDS011;8800;50.118;9.900;2022-10-22T14:53:48;5.45;;;1.65;;
17365;SDS011;8800;50.118;9.900;2022-10-22T14:56:15;2.60;;;1.75;;
17365;SDS011;8800;50.118;9.900;2022-10-22T14:58:43;6.85;;;2.05;;
17365;SDS011;8800;50.118;9.900;2022-10-22T15:01:10;3.25;;;1.17;;
17365;SDS011;8800;50.118;9.900;2022-10-22T15:03:36;2.22;;;1.20;;
17365;SDS011;8800;50.118;9.900;2022-10-22T15:06:03;3.03;;;0.90;;